LCRA/AKT METAR and TAF weather

Enter ICAO airport designator
Station Type Date Time Source
LCRA METAR 2019/02/20 16:50 UTC NOAA

LCRA 201650Z 23007KT 9999 FEW045 BKN080 15/10 Q1020 BLU NOSIG


Station Type Date Time Source
LCRA Decoded METAR 2019/02/20 16:50 UTC NOAA

Akrotiri, Cyprus (LCRA) 34-35N 032-59E 0M
Feb 20, 2019 - 11:50 AM EST / 2019.02.20 1650 UTC
Wind: from the SW (230 degrees) at 8 MPH (7 KT):0
Visibility: greater than 7 mile(s):0
Sky conditions: mostly cloudy
Temperature: 59 F (15 C)
Dew Point: 50 F (10 C)
Relative Humidity: 72%
Pressure (altimeter): 30.12 in. Hg (1020 hPa)
ob: LCRA 201650Z 23007KT 9999 FEW045 BKN080 15/10 Q1020 BLU NOSIG
cycle: 17

Station Type Date Time Source
LCRA TAF 2019/02/20 18:37 UTC NOAA

TAF LCRA 201633Z 2018/2112 24007KT 9999 FEW040 PROB30
TEMPO 2110/2112 7000 SHRA


Example: see airport list